createdAt,value
2022-08-11T00:01:28.100Z,17.94
2022-08-11T00:04:05.513Z,18.21
2022-08-11T00:06:36.990Z,18.00
2022-08-11T00:09:26.562Z,18.28
2022-08-11T00:11:58.655Z,18.27
2022-08-11T00:14:37.351Z,18.39
2022-08-11T00:17:16.507Z,18.22
2022-08-11T00:20:12.507Z,18.18
2022-08-11T00:22:40.437Z,18.37
2022-08-11T00:25:16.487Z,18.42
2022-08-11T00:27:44.735Z,18.43
2022-08-11T00:30:14.264Z,18.13
2022-08-11T00:32:44.523Z,18.42
2022-08-11T00:35:56.096Z,18.47
2022-08-11T00:38:05.487Z,18.23
2022-08-11T00:41:03.362Z,17.98
2022-08-11T00:44:08.852Z,18.50
2022-08-11T00:47:16.301Z,18.46
2022-08-11T00:49:50.517Z,18.48
2022-08-11T00:52:40.616Z,18.45
2022-08-11T00:55:27.047Z,18.42
2022-08-11T00:58:12.025Z,18.42
2022-08-11T01:01:16.250Z,18.28
2022-08-11T01:03:54.793Z,18.40
2022-08-11T01:06:42.161Z,18.47
2022-08-11T01:09:34.513Z,18.27
2022-08-11T01:12:12.187Z,18.40
2022-08-11T01:15:17.029Z,18.42
2022-08-11T01:18:04.451Z,18.42
2022-08-11T01:20:54.862Z,18.43
2022-08-11T01:23:58.233Z,18.37
2022-08-11T01:27:19.664Z,18.23
2022-08-11T01:30:06.436Z,18.40
2022-08-11T01:33:11.719Z,18.40
2022-08-11T01:36:09.161Z,18.33
2022-08-11T01:38:52.164Z,18.41
2022-08-11T01:41:57.182Z,18.45
2022-08-11T01:45:00.171Z,18.43
2022-08-11T01:47:53.899Z,17.93
2022-08-11T01:50:31.328Z,18.41
2022-08-11T01:53:19.091Z,18.42
2022-08-11T01:56:23.848Z,18.45
2022-08-11T01:58:58.477Z,18.43
2022-08-11T02:01:40.262Z,18.49
2022-08-11T02:04:23.992Z,18.36
2022-08-11T02:07:19.353Z,18.47
2022-08-11T02:10:39.149Z,18.42
2022-08-11T02:13:19.339Z,18.42
2022-08-11T02:16:27.671Z,18.39
2022-08-11T02:19:38.095Z,18.39
2022-08-11T02:22:37.160Z,18.39
2022-08-11T02:25:36.000Z,18.28
2022-08-11T02:28:13.594Z,18.27
2022-08-11T02:32:24.175Z,18.39
2022-08-11T02:34:37.543Z,18.38
2022-08-11T02:37:16.162Z,18.39
2022-08-11T02:40:10.743Z,18.42
2022-08-11T02:42:48.213Z,18.40
2022-08-11T02:45:38.105Z,18.39
2022-08-11T02:48:33.842Z,18.38
2022-08-11T02:51:32.798Z,18.38
2022-08-11T02:54:14.483Z,17.89
2022-08-11T02:56:47.259Z,18.08
2022-08-11T02:59:52.939Z,18.38
2022-08-11T03:02:32.584Z,18.38
2022-08-11T03:05:13.929Z,18.38
2022-08-11T03:08:07.059Z,18.26
2022-08-11T03:11:34.184Z,18.40
2022-08-11T03:14:54.902Z,18.39
2022-08-11T03:17:29.706Z,18.40
2022-08-11T03:20:23.695Z,18.39
2022-08-11T03:23:20.476Z,18.41
2022-08-11T03:26:07.712Z,18.41
2022-08-11T03:28:51.652Z,18.23
2022-08-11T03:31:29.159Z,18.29
2022-08-11T03:34:23.550Z,18.09
2022-08-11T03:37:39.198Z,18.41
2022-08-11T03:40:38.147Z,18.37
2022-08-11T03:43:58.689Z,18.37
2022-08-11T03:46:45.393Z,18.39
2022-08-11T03:49:26.540Z,18.29
2022-08-11T03:52:08.174Z,18.23
2022-08-11T03:54:56.873Z,18.35
2022-08-11T03:58:01.394Z,18.34
2022-08-11T04:01:07.206Z,18.35
2022-08-11T04:04:03.844Z,18.31
2022-08-11T04:06:53.201Z,18.32
2022-08-11T04:09:59.434Z,18.17
2022-08-11T04:13:04.470Z,18.28
2022-08-11T04:16:12.235Z,18.24
2022-08-11T04:19:18.858Z,18.30
2022-08-11T04:21:58.196Z,18.28
2022-08-11T04:24:40.182Z,18.23
2022-08-11T04:27:56.359Z,18.00
2022-08-11T04:30:55.400Z,18.25
2022-08-11T04:33:56.076Z,18.26
2022-08-11T04:36:47.872Z,18.27
2022-08-11T04:39:33.677Z,18.27
2022-08-11T04:42:41.701Z,18.32
2022-08-11T04:45:41.241Z,18.32
2022-08-11T04:48:36.706Z,18.34
2022-08-11T04:52:04.861Z,18.37
2022-08-11T04:55:13.180Z,18.39
2022-08-11T04:58:21.210Z,18.40
2022-08-11T05:01:43.921Z,18.38
2022-08-11T05:04:52.244Z,18.47
2022-08-11T05:07:28.914Z,18.37
2022-08-11T05:10:14.735Z,18.37
2022-08-11T05:12:49.985Z,18.27
2022-08-11T05:15:44.671Z,18.46
2022-08-11T05:18:39.304Z,18.26
2022-08-11T05:21:44.455Z,18.24
2022-08-11T05:25:10.272Z,18.56
2022-08-11T05:28:27.623Z,18.58
2022-08-11T05:31:33.393Z,18.59
2022-08-11T05:34:31.507Z,18.38
2022-08-11T05:37:25.764Z,18.68
2022-08-11T05:40:19.084Z,18.57
2022-08-11T05:43:14.434Z,18.48
2022-08-11T05:46:10.143Z,18.61
2022-08-11T05:49:00.679Z,18.67
2022-08-11T05:52:05.682Z,18.91
2022-08-11T05:55:07.107Z,18.78
2022-08-11T05:57:50.871Z,19.03
2022-08-11T06:00:21.315Z,19.21
2022-08-11T06:02:55.648Z,19.28
2022-08-11T06:05:48.866Z,18.79
2022-08-11T06:08:36.294Z,19.36
2022-08-11T06:11:06.726Z,19.10
2022-08-11T06:13:36.522Z,19.35
2022-08-11T06:16:09.313Z,19.50
2022-08-11T06:18:38.358Z,19.60
2022-08-11T06:21:11.001Z,19.53
2022-08-11T06:23:43.451Z,19.51
2022-08-11T06:26:14.108Z,19.66
2022-08-11T06:28:45.878Z,19.54
2022-08-11T06:31:18.815Z,19.54
2022-08-11T06:34:02.678Z,19.83
2022-08-11T06:37:04.710Z,19.89
2022-08-11T06:39:53.339Z,19.93
2022-08-11T06:42:37.549Z,19.97
2022-08-11T06:45:34.308Z,20.10
2022-08-11T06:48:04.427Z,20.09
2022-08-11T06:50:52.754Z,20.08
2022-08-11T06:53:22.200Z,20.17
2022-08-11T06:56:09.946Z,20.30
2022-08-11T06:59:01.305Z,20.40
2022-08-11T07:01:50.996Z,20.59
2022-08-11T07:05:01.266Z,20.66
2022-08-11T07:08:34.419Z,20.74
2022-08-11T07:12:08.161Z,20.79
2022-08-11T07:15:00.688Z,20.60
2022-08-11T07:17:30.964Z,20.86
2022-08-11T07:20:20.490Z,20.81
2022-08-11T07:23:18.381Z,20.60
2022-08-11T07:26:11.333Z,20.96
2022-08-11T07:29:01.623Z,20.86
2022-08-11T07:31:37.655Z,20.81
2022-08-11T07:34:22.395Z,20.98
2022-08-11T07:36:58.814Z,21.06
2022-08-11T07:39:28.464Z,21.17
2022-08-11T07:41:59.086Z,21.07
2022-08-11T07:44:34.674Z,21.40
2022-08-11T07:47:23.172Z,21.60
2022-08-11T07:50:13.248Z,21.69
2022-08-11T07:52:41.696Z,21.83
2022-08-11T07:55:15.163Z,21.67
2022-08-11T07:58:16.295Z,21.77
2022-08-11T08:01:16.012Z,22.16
2022-08-11T08:04:10.183Z,22.10
2022-08-11T08:06:58.812Z,22.38
2022-08-11T08:09:46.230Z,22.25
2022-08-11T08:12:34.478Z,22.38
2022-08-11T08:15:26.949Z,22.64
2022-08-11T08:18:20.602Z,22.40
2022-08-11T08:20:48.292Z,22.53
2022-08-11T08:23:17.834Z,22.61
2022-08-11T08:25:47.262Z,22.82
2022-08-11T08:28:21.253Z,22.71
2022-08-11T08:30:51.936Z,23.02
2022-08-11T08:33:26.758Z,23.03
2022-08-11T08:36:17.352Z,23.05
2022-08-11T08:38:51.594Z,23.23
2022-08-11T08:41:23.804Z,23.26
2022-08-11T08:44:02.442Z,23.23
2022-08-11T08:46:50.951Z,23.29
2022-08-11T08:49:23.951Z,23.40
2022-08-11T08:52:20.486Z,23.36
2022-08-11T08:54:51.518Z,23.19
2022-08-11T08:57:21.230Z,23.40
2022-08-11T08:59:51.528Z,23.53
2022-08-11T09:02:34.477Z,23.59
2022-08-11T09:05:04.811Z,23.70
2022-08-11T09:07:39.400Z,23.56
2022-08-11T09:10:10.478Z,23.73
2022-08-11T09:12:44.345Z,23.79
2022-08-11T09:15:19.385Z,23.65
2022-08-11T09:17:53.994Z,24.03
2022-08-11T09:20:25.864Z,23.76
2022-08-11T09:26:31.030Z,24.21
2022-08-11T09:29:01.107Z,24.27
2022-08-11T09:31:38.988Z,24.27
2022-08-11T09:34:14.202Z,24.23
2022-08-11T09:37:03.412Z,24.30
2022-08-11T09:40:06.387Z,24.11
2022-08-11T09:42:53.272Z,24.18
2022-08-11T09:45:21.521Z,24.32
2022-08-11T09:47:49.348Z,24.09
2022-08-11T09:50:21.287Z,24.43
2022-08-11T09:53:16.959Z,24.51
2022-08-11T09:55:39.994Z,24.67
2022-08-11T09:58:35.193Z,24.80
2022-08-11T10:01:08.283Z,24.81
2022-08-11T10:03:41.073Z,24.88
2022-08-11T10:06:33.301Z,24.96
2022-08-11T10:09:06.800Z,25.21
2022-08-11T10:11:37.282Z,25.00
2022-08-11T10:14:32.632Z,25.21
2022-08-11T10:17:07.602Z,25.41
2022-08-11T10:19:40.960Z,25.50
2022-08-11T10:22:28.312Z,25.32
2022-08-11T10:25:19.781Z,25.51
2022-08-11T10:28:33.155Z,25.77
2022-08-11T10:31:12.477Z,26.14
2022-08-11T10:34:01.605Z,26.23
2022-08-11T10:36:34.830Z,26.18
2022-08-11T10:39:05.593Z,25.99
2022-08-11T10:42:08.351Z,26.15
2022-08-11T10:44:42.846Z,26.19
2022-08-11T10:47:32.288Z,26.16
2022-08-11T10:50:34.050Z,26.15
2022-08-11T10:53:21.715Z,26.02
2022-08-11T10:56:08.867Z,26.00
2022-08-11T10:58:50.678Z,26.02
2022-08-11T11:01:22.908Z,26.04
2022-08-11T11:04:00.676Z,25.75
2022-08-11T11:06:45.040Z,26.15
2022-08-11T11:09:20.062Z,25.96
2022-08-11T11:12:17.772Z,26.12
2022-08-11T11:15:06.809Z,26.06
2022-08-11T11:17:56.609Z,26.15
2022-08-11T11:20:36.420Z,26.45
2022-08-11T11:23:40.082Z,26.49
2022-08-11T11:26:27.619Z,26.50
2022-08-11T11:29:10.773Z,26.52
2022-08-11T11:32:14.661Z,26.38
2022-08-11T11:34:59.533Z,26.42
2022-08-11T11:37:30.035Z,26.32
2022-08-11T11:39:59.100Z,26.27
2022-08-11T11:42:26.808Z,26.33
2022-08-11T11:44:57.224Z,26.34
2022-08-11T11:47:27.351Z,26.12
2022-08-11T11:49:55.731Z,26.07
2022-08-11T11:52:24.633Z,26.29
2022-08-11T11:54:55.998Z,26.24
2022-08-11T11:57:59.042Z,26.18
2022-08-11T12:00:48.285Z,26.40
2022-08-11T12:03:18.566Z,26.02
2022-08-11T12:05:47.232Z,26.39
2022-08-11T12:08:16.518Z,26.03
2022-08-11T12:11:16.021Z,26.40
2022-08-11T12:13:46.596Z,26.19
2022-08-11T12:16:33.573Z,26.35
2022-08-11T12:19:07.886Z,26.38
2022-08-11T12:21:37.597Z,26.48
2022-08-11T12:24:28.507Z,26.48
2022-08-11T12:27:18.891Z,26.49
2022-08-11T12:30:06.698Z,26.27
2022-08-11T12:32:38.129Z,26.50
2022-08-11T12:35:07.309Z,26.13
2022-08-11T12:37:44.905Z,26.31
2022-08-11T12:40:50.066Z,26.40
2022-08-11T12:44:03.993Z,26.08
2022-08-11T12:46:39.103Z,26.16
2022-08-11T12:49:32.061Z,26.12
2022-08-11T12:52:14.954Z,25.92
2022-08-11T12:54:47.244Z,25.62
2022-08-11T12:57:37.842Z,25.69
2022-08-11T13:00:29.123Z,25.50
2022-08-11T13:03:16.571Z,25.41
2022-08-11T13:05:47.899Z,25.29
2022-08-11T13:08:17.215Z,25.35
2022-08-11T13:11:05.779Z,25.11
2022-08-11T13:13:55.269Z,25.19
2022-08-11T13:16:31.671Z,25.14
2022-08-11T13:19:01.546Z,25.06
2022-08-11T13:21:31.568Z,25.08
2022-08-11T13:24:03.381Z,24.87
2022-08-11T13:26:47.212Z,24.89
2022-08-11T13:29:23.817Z,24.64
2022-08-11T13:31:58.845Z,24.75
2022-08-11T13:34:28.011Z,24.73
2022-08-11T13:37:00.428Z,24.44
2022-08-11T13:39:30.921Z,24.49
2022-08-11T13:42:01.385Z,24.43
2022-08-11T13:44:36.242Z,24.48
2022-08-11T13:47:05.420Z,24.29
2022-08-11T13:49:39.743Z,24.09
2022-08-11T13:52:13.173Z,23.98
2022-08-11T13:54:42.758Z,23.70
2022-08-11T13:58:07.705Z,23.73
2022-08-11T14:00:23.565Z,23.68
2022-08-11T14:02:57.502Z,23.44
2022-08-11T14:05:33.072Z,23.59
2022-08-11T14:08:37.126Z,23.57
2022-08-11T14:12:21.426Z,23.49
2022-08-11T14:14:17.887Z,23.42
2022-08-11T14:16:48.266Z,23.26
2022-08-11T14:19:22.126Z,23.32
2022-08-11T14:22:08.765Z,23.23
2022-08-11T14:24:53.024Z,23.03
2022-08-11T14:28:25.585Z,23.09
2022-08-11T14:30:36.759Z,23.03
2022-08-11T14:33:16.861Z,22.90
2022-08-11T14:35:48.890Z,22.66
2022-08-11T14:38:20.048Z,23.01
2022-08-11T14:41:08.297Z,22.88
2022-08-11T14:44:12.695Z,22.81
2022-08-11T14:47:02.064Z,22.84
2022-08-11T14:49:30.554Z,22.83
2022-08-11T14:51:59.407Z,22.80
2022-08-11T14:54:49.598Z,22.83
2022-08-11T14:57:55.323Z,22.40
2022-08-11T15:00:17.358Z,22.64
2022-08-11T15:03:11.147Z,22.57
2022-08-11T15:05:55.782Z,22.45
2022-08-11T15:08:46.815Z,22.56
2022-08-11T15:11:36.993Z,22.49
2022-08-11T15:14:09.024Z,22.33
2022-08-11T15:17:01.370Z,22.37
2022-08-11T15:19:37.535Z,22.35
2022-08-11T15:22:36.599Z,22.32
2022-08-11T15:25:04.635Z,22.24
2022-08-11T15:27:53.733Z,22.19
2022-08-11T15:30:52.363Z,21.93
2022-08-11T15:33:39.782Z,22.05
2022-08-11T15:36:28.831Z,22.14
2022-08-11T15:39:03.871Z,22.09
2022-08-11T15:42:04.234Z,21.89
2022-08-11T15:47:41.373Z,21.69
2022-08-11T15:50:17.975Z,21.72
2022-08-11T15:53:01.978Z,21.66
2022-08-11T15:55:33.574Z,21.86
2022-08-11T15:58:23.444Z,21.88
2022-08-11T16:01:13.216Z,21.87
2022-08-11T16:04:12.599Z,21.84
2022-08-11T16:06:58.956Z,21.81
2022-08-11T16:09:51.849Z,21.81
2022-08-11T16:12:28.743Z,21.77
2022-08-11T16:15:35.091Z,21.38
2022-08-11T16:18:07.060Z,21.71
2022-08-11T16:20:36.034Z,21.71
2022-08-11T16:23:06.802Z,21.49
2022-08-11T16:27:02.536Z,21.68
2022-08-11T16:28:26.761Z,21.33
2022-08-11T16:30:56.641Z,21.62
2022-08-11T16:33:49.833Z,21.54
2022-08-11T16:36:35.255Z,21.30
2022-08-11T16:39:04.554Z,21.40
2022-08-11T16:41:54.255Z,21.46
2022-08-11T16:44:42.047Z,21.34
2022-08-11T16:48:02.099Z,21.31
2022-08-11T16:50:11.189Z,21.33
2022-08-11T16:52:38.862Z,21.18
2022-08-11T16:55:06.851Z,21.34
2022-08-11T16:57:53.534Z,21.26
2022-08-11T17:00:21.499Z,21.34
2022-08-11T17:03:12.497Z,21.27
2022-08-11T17:06:08.589Z,21.12
2022-08-11T17:09:01.742Z,21.35
2022-08-11T17:11:52.197Z,21.23
2022-08-11T17:14:38.146Z,21.29
2022-08-11T17:17:13.077Z,21.20
2022-08-11T17:20:38.535Z,21.31
2022-08-11T17:22:52.437Z,21.18
2022-08-11T17:25:22.061Z,21.09
2022-08-11T17:27:52.836Z,21.17
2022-08-11T17:30:22.295Z,21.14
2022-08-11T17:33:10.561Z,21.19
2022-08-11T17:35:41.889Z,21.18
2022-08-11T17:38:18.621Z,21.15
2022-08-11T17:41:10.608Z,21.02
2022-08-11T17:44:07.050Z,20.85
2022-08-11T17:46:56.291Z,21.06
2022-08-11T17:49:25.420Z,20.91
2022-08-11T17:52:12.643Z,21.10
2022-08-11T17:55:00.709Z,20.91
2022-08-11T17:57:49.368Z,20.82
2022-08-11T18:00:17.758Z,21.11
2022-08-11T18:03:04.815Z,21.10
2022-08-11T18:05:36.428Z,21.02
2022-08-11T18:08:27.162Z,21.00
2022-08-11T18:11:17.532Z,21.05
2022-08-11T18:14:25.084Z,20.91
2022-08-11T18:17:11.500Z,20.53
2022-08-11T18:19:58.351Z,20.75
2022-08-11T18:22:50.497Z,20.92
2022-08-11T18:25:45.363Z,20.92
2022-08-11T18:28:34.613Z,20.82
2022-08-11T18:31:24.064Z,20.68
2022-08-11T18:34:11.626Z,20.87
2022-08-11T18:37:29.519Z,20.82
2022-08-11T18:40:33.787Z,20.74
2022-08-11T18:43:27.372Z,20.68
2022-08-11T18:46:21.823Z,20.81
2022-08-11T18:50:03.488Z,20.79
2022-08-11T18:52:42.675Z,20.77
2022-08-11T18:55:35.671Z,20.68
2022-08-11T18:58:26.811Z,20.64
2022-08-11T19:01:21.018Z,20.73
2022-08-11T19:04:11.894Z,20.73
2022-08-11T19:07:06.278Z,20.70
2022-08-11T19:09:55.821Z,20.73
2022-08-11T19:12:44.609Z,20.45
2022-08-11T19:15:32.547Z,20.34
2022-08-11T19:18:22.276Z,20.29
2022-08-11T19:21:10.721Z,20.33
2022-08-11T19:24:02.060Z,20.33
2022-08-11T19:26:50.465Z,20.17
2022-08-11T19:30:04.753Z,20.28
2022-08-11T19:32:49.282Z,20.27
2022-08-11T19:35:36.545Z,20.25
2022-08-11T19:38:23.624Z,20.25
2022-08-11T19:41:11.753Z,20.18
2022-08-11T19:44:00.145Z,20.25
2022-08-11T19:46:46.888Z,20.09
2022-08-11T19:49:35.370Z,20.17
2022-08-11T19:52:23.052Z,19.98
2022-08-11T19:55:11.149Z,20.00
2022-08-11T19:57:59.102Z,20.26
2022-08-11T20:00:45.748Z,20.11
2022-08-11T20:03:33.394Z,20.30
2022-08-11T20:06:25.592Z,20.29
2022-08-11T20:09:17.771Z,20.21
2022-08-11T20:12:08.570Z,20.28
2022-08-11T20:14:59.766Z,20.26
2022-08-11T20:17:51.246Z,20.28
2022-08-11T20:20:41.650Z,20.27
2022-08-11T20:23:31.610Z,20.24
2022-08-11T20:26:30.913Z,20.24
2022-08-11T20:29:20.233Z,20.02
2022-08-11T20:32:09.665Z,20.24
2022-08-11T20:34:57.863Z,19.96
2022-08-11T20:37:50.150Z,20.24
2022-08-11T20:40:41.778Z,20.15
2022-08-11T20:44:08.189Z,20.14
2022-08-11T20:46:41.618Z,20.19
2022-08-11T20:49:45.079Z,20.14
2022-08-11T20:52:40.167Z,20.18
2022-08-11T20:55:46.439Z,20.17
2022-08-11T20:59:04.078Z,20.16
2022-08-11T21:01:44.967Z,20.17
2022-08-11T21:04:32.397Z,20.16
2022-08-11T21:07:27.859Z,20.16
2022-08-11T21:10:23.446Z,20.15
2022-08-11T21:13:26.011Z,19.69
2022-08-11T21:16:26.293Z,19.69
2022-08-11T21:19:54.505Z,20.13
2022-08-11T21:22:28.443Z,19.86
2022-08-11T21:25:17.678Z,19.97
2022-08-11T21:28:07.260Z,20.08
2022-08-11T21:30:57.443Z,18.95
2022-08-11T21:33:47.880Z,19.96
2022-08-11T21:36:38.007Z,19.60
2022-08-11T21:39:26.820Z,19.65
2022-08-11T21:42:15.800Z,20.00
2022-08-11T21:45:03.972Z,19.99
2022-08-11T21:48:01.151Z,20.02
2022-08-11T21:50:49.010Z,19.76
2022-08-11T21:53:36.817Z,19.94
2022-08-11T21:56:25.533Z,19.80
2022-08-11T21:59:16.370Z,19.85
2022-08-11T22:02:05.381Z,19.90
2022-08-11T22:04:55.345Z,19.88
2022-08-11T22:07:41.790Z,19.79
2022-08-11T22:10:40.699Z,19.82
2022-08-11T22:13:33.057Z,19.81
2022-08-11T22:16:19.936Z,19.82
2022-08-11T22:19:09.334Z,19.82
2022-08-11T22:22:03.816Z,19.79
2022-08-11T22:24:52.725Z,19.76
2022-08-11T22:27:40.954Z,19.68
2022-08-11T22:30:30.175Z,19.60
2022-08-11T22:33:24.502Z,19.57
2022-08-11T22:36:14.808Z,19.70
2022-08-11T22:39:05.523Z,19.63
2022-08-11T22:41:52.635Z,19.66
2022-08-11T22:44:39.360Z,19.58
2022-08-11T22:47:33.396Z,19.64
2022-08-11T22:50:29.212Z,19.53
2022-08-11T22:53:16.554Z,19.40
2022-08-11T22:56:03.433Z,19.35
2022-08-11T22:58:51.139Z,19.20
2022-08-11T23:01:38.542Z,19.39
2022-08-11T23:04:42.203Z,19.43
2022-08-11T23:07:50.847Z,19.24
2022-08-11T23:10:38.375Z,19.34
2022-08-11T23:13:27.409Z,19.36
2022-08-11T23:16:14.840Z,19.44
2022-08-11T23:19:02.100Z,19.43
2022-08-11T23:21:51.000Z,19.45
2022-08-11T23:24:40.066Z,19.40
2022-08-11T23:27:29.483Z,19.42
2022-08-11T23:30:19.724Z,19.42
2022-08-11T23:33:11.666Z,19.08
2022-08-11T23:36:03.588Z,19.40
2022-08-11T23:38:52.408Z,19.41
2022-08-11T23:41:40.328Z,19.23
2022-08-11T23:44:27.873Z,19.35
2022-08-11T23:47:18.557Z,19.29
2022-08-11T23:50:06.893Z,19.24
2022-08-11T23:52:55.120Z,18.88
2022-08-11T23:55:41.732Z,19.00
2022-08-11T23:58:33.435Z,19.12
